sensor_id;sensor_type;location;lat;lon;timestamp;temperature;humidity
42833;DHT22;64089;51.478;5.692;2023-05-07T00:02:21;14.50;99.90
42833;DHT22;64089;51.478;5.692;2023-05-07T00:04:48;14.50;99.90
42833;DHT22;64089;51.478;5.692;2023-05-07T00:07:14;14.50;99.90
42833;DHT22;64089;51.478;5.692;2023-05-07T00:09:43;14.50;99.90
42833;DHT22;64089;51.478;5.692;2023-05-07T00:12:08;14.50;99.90
42833;DHT22;64089;51.478;5.692;2023-05-07T00:14:34;14.60;99.90
42833;DHT22;64089;51.478;5.692;2023-05-07T00:17:00;14.60;99.90
42833;DHT22;64089;51.478;5.692;2023-05-07T00:19:25;14.60;99.90
42833;DHT22;64089;51.478;5.692;2023-05-07T00:21:51;14.70;99.90
42833;DHT22;64089;51.478;5.692;2023-05-07T00:24:18;14.60;99.90
42833;DHT22;64089;51.478;5.692;2023-05-07T00:26:44;14.60;99.90
42833;DHT22;64089;51.478;5.692;2023-05-07T00:29:10;14.60;99.90
42833;DHT22;64089;51.478;5.692;2023-05-07T00:31:35;14.60;99.90
42833;DHT22;64089;51.478;5.692;2023-05-07T00:34:01;14.60;99.90
42833;DHT22;64089;51.478;5.692;2023-05-07T00:36:27;14.60;99.90
42833;DHT22;64089;51.478;5.692;2023-05-07T00:38:53;14.60;99.90
42833;DHT22;64089;51.478;5.692;2023-05-07T00:41:20;14.50;99.90
42833;DHT22;64089;51.478;5.692;2023-05-07T00:43:45;14.50;99.90
42833;DHT22;64089;51.478;5.692;2023-05-07T00:46:11;14.40;99.90
42833;DHT22;64089;51.478;5.692;2023-05-07T00:48:37;14.30;99.90
42833;DHT22;64089;51.478;5.692;2023-05-07T00:51:03;14.30;99.90
42833;DHT22;64089;51.478;5.692;2023-05-07T00:53:28;14.30;99.90
42833;DHT22;64089;51.478;5.692;2023-05-07T00:55:55;14.30;99.90
42833;DHT22;64089;51.478;5.692;2023-05-07T00:58:22;14.30;99.90
42833;DHT22;64089;51.478;5.692;2023-05-07T01:00:47;14.30;99.90
42833;DHT22;64089;51.478;5.692;2023-05-07T01:03:13;14.20;99.90
42833;DHT22;64089;51.478;5.692;2023-05-07T01:05:39;14.30;99.90
42833;DHT22;64089;51.478;5.692;2023-05-07T01:08:05;14.20;99.90
42833;DHT22;64089;51.478;5.692;2023-05-07T01:10:31;14.30;99.90
42833;DHT22;64089;51.478;5.692;2023-05-07T01:12:58;14.20;99.90
42833;DHT22;64089;51.478;5.692;2023-05-07T01:15:24;14.30;99.90
42833;DHT22;64089;51.478;5.692;2023-05-07T01:17:50;14.30;99.90
42833;DHT22;64089;51.478;5.692;2023-05-07T01:20:18;14.30;99.90
42833;DHT22;64089;51.478;5.692;2023-05-07T01:22:44;14.30;99.90
42833;DHT22;64089;51.478;5.692;2023-05-07T01:25:10;14.30;99.90
42833;DHT22;64089;51.478;5.692;2023-05-07T01:27:35;14.30;99.90
42833;DHT22;64089;51.478;5.692;2023-05-07T01:30:03;14.30;99.90
42833;DHT22;64089;51.478;5.692;2023-05-07T01:33:01;14.30;99.90
42833;DHT22;64089;51.478;5.692;2023-05-07T01:35:32;14.30;99.90
42833;DHT22;64089;51.478;5.692;2023-05-07T01:37:59;14.30;99.90
42833;DHT22;64089;51.478;5.692;2023-05-07T01:40:25;14.20;99.90
42833;DHT22;64089;51.478;5.692;2023-05-07T01:42:52;14.20;99.90
42833;DHT22;64089;51.478;5.692;2023-05-07T01:45:18;14.20;99.90
42833;DHT22;64089;51.478;5.692;2023-05-07T01:47:44;14.20;99.90
42833;DHT22;64089;51.478;5.692;2023-05-07T01:50:10;14.20;99.90
42833;DHT22;64089;51.478;5.692;2023-05-07T01:52:37;14.20;99.90
42833;DHT22;64089;51.478;5.692;2023-05-07T01:55:04;14.20;99.90
42833;DHT22;64089;51.478;5.692;2023-05-07T01:57:30;14.30;99.90
42833;DHT22;64089;51.478;5.692;2023-05-07T01:59:56;14.30;99.90
42833;DHT22;64089;51.478;5.692;2023-05-07T02:02:21;14.20;99.90
42833;DHT22;64089;51.478;5.692;2023-05-07T02:04:47;14.20;99.90
42833;DHT22;64089;51.478;5.692;2023-05-07T02:07:13;14.20;99.90
42833;DHT22;64089;51.478;5.692;2023-05-07T02:09:38;14.10;99.90
42833;DHT22;64089;51.478;5.692;2023-05-07T02:12:04;14.20;99.90
42833;DHT22;64089;51.478;5.692;2023-05-07T02:14:30;14.20;99.90
42833;DHT22;64089;51.478;5.692;2023-05-07T02:16:56;14.10;99.90
42833;DHT22;64089;51.478;5.692;2023-05-07T02:19:21;14.10;99.90
42833;DHT22;64089;51.478;5.692;2023-05-07T02:21:47;14.10;99.90
42833;DHT22;64089;51.478;5.692;2023-05-07T02:24:13;14.10;99.90
42833;DHT22;64089;51.478;5.692;2023-05-07T02:26:43;14.10;99.90
42833;DHT22;64089;51.478;5.692;2023-05-07T02:29:08;14.10;99.90
42833;DHT22;64089;51.478;5.692;2023-05-07T02:31:34;14.10;99.90
42833;DHT22;64089;51.478;5.692;2023-05-07T02:34:00;14.10;99.90
42833;DHT22;64089;51.478;5.692;2023-05-07T02:36:26;14.10;99.90
42833;DHT22;64089;51.478;5.692;2023-05-07T02:38:54;14.10;99.90
42833;DHT22;64089;51.478;5.692;2023-05-07T02:41:20;14.10;99.90
42833;DHT22;64089;51.478;5.692;2023-05-07T02:43:46;14.10;99.90
42833;DHT22;64089;51.478;5.692;2023-05-07T02:46:12;14.20;99.90
42833;DHT22;64089;51.478;5.692;2023-05-07T02:48:37;14.20;99.90
42833;DHT22;64089;51.478;5.692;2023-05-07T02:51:03;14.20;99.90
42833;DHT22;64089;51.478;5.692;2023-05-07T02:53:29;14.20;99.90
42833;DHT22;64089;51.478;5.692;2023-05-07T02:55:56;14.20;99.90
42833;DHT22;64089;51.478;5.692;2023-05-07T02:58:22;14.20;99.90
42833;DHT22;64089;51.478;5.692;2023-05-07T03:00:47;14.20;99.90
42833;DHT22;64089;51.478;5.692;2023-05-07T03:03:14;14.20;99.90
42833;DHT22;64089;51.478;5.692;2023-05-07T03:05:40;14.20;99.90
42833;DHT22;64089;51.478;5.692;2023-05-07T03:08:06;14.20;99.90
42833;DHT22;64089;51.478;5.692;2023-05-07T03:10:32;14.20;99.90
42833;DHT22;64089;51.478;5.692;2023-05-07T03:12:58;14.20;99.90
42833;DHT22;64089;51.478;5.692;2023-05-07T03:15:23;14.10;99.90
42833;DHT22;64089;51.478;5.692;2023-05-07T03:17:49;14.10;99.90
42833;DHT22;64089;51.478;5.692;2023-05-07T03:20:14;14.10;99.90
42833;DHT22;64089;51.478;5.692;2023-05-07T03:22:43;14.10;99.90
42833;DHT22;64089;51.478;5.692;2023-05-07T03:25:09;14.10;99.90
42833;DHT22;64089;51.478;5.692;2023-05-07T03:27:34;14.10;99.90
42833;DHT22;64089;51.478;5.692;2023-05-07T03:30:00;14.10;99.90
42833;DHT22;64089;51.478;5.692;2023-05-07T03:32:26;14.10;99.90
42833;DHT22;64089;51.478;5.692;2023-05-07T03:34:52;14.10;99.90
42833;DHT22;64089;51.478;5.692;2023-05-07T03:37:18;14.10;99.90
42833;DHT22;64089;51.478;5.692;2023-05-07T03:39:43;14.10;99.90
42833;DHT22;64089;51.478;5.692;2023-05-07T03:42:09;14.10;99.90
42833;DHT22;64089;51.478;5.692;2023-05-07T03:44:35;14.10;99.90
42833;DHT22;64089;51.478;5.692;2023-05-07T03:47:02;14.10;99.90
42833;DHT22;64089;51.478;5.692;2023-05-07T03:49:27;14.00;99.90
42833;DHT22;64089;51.478;5.692;2023-05-07T03:51:53;14.10;99.90
42833;DHT22;64089;51.478;5.692;2023-05-07T03:54:19;14.00;99.90
42833;DHT22;64089;51.478;5.692;2023-05-07T03:56:44;14.00;99.90
42833;DHT22;64089;51.478;5.692;2023-05-07T03:59:10;14.00;99.90
42833;DHT22;64089;51.478;5.692;2023-05-07T04:01:35;14.00;99.90
42833;DHT22;64089;51.478;5.692;2023-05-07T04:04:01;14.00;99.90
42833;DHT22;64089;51.478;5.692;2023-05-07T04:06:27;14.00;99.90
42833;DHT22;64089;51.478;5.692;2023-05-07T04:08:53;14.00;99.90
42833;DHT22;64089;51.478;5.692;2023-05-07T04:11:18;14.00;99.90
42833;DHT22;64089;51.478;5.692;2023-05-07T04:13:44;14.10;99.90
42833;DHT22;64089;51.478;5.692;2023-05-07T04:16:09;14.00;99.90
42833;DHT22;64089;51.478;5.692;2023-05-07T04:18:35;14.00;99.90
42833;DHT22;64089;51.478;5.692;2023-05-07T04:21:01;14.10;99.90
42833;DHT22;64089;51.478;5.692;2023-05-07T04:23:26;14.10;99.90
42833;DHT22;64089;51.478;5.692;2023-05-07T04:25:52;14.10;99.90
42833;DHT22;64089;51.478;5.692;2023-05-07T04:28:18;14.10;99.90
42833;DHT22;64089;51.478;5.692;2023-05-07T04:30:43;14.10;99.90
42833;DHT22;64089;51.478;5.692;2023-05-07T04:33:09;14.10;99.90
42833;DHT22;64089;51.478;5.692;2023-05-07T04:35:35;14.20;99.90
42833;DHT22;64089;51.478;5.692;2023-05-07T04:38:01;14.20;99.90
42833;DHT22;64089;51.478;5.692;2023-05-07T04:40:27;14.20;99.90
42833;DHT22;64089;51.478;5.692;2023-05-07T04:42:52;14.30;99.90
42833;DHT22;64089;51.478;5.692;2023-05-07T04:45:18;14.30;99.90
42833;DHT22;64089;51.478;5.692;2023-05-07T04:47:44;14.30;99.90
42833;DHT22;64089;51.478;5.692;2023-05-07T04:50:10;14.30;99.90
42833;DHT22;64089;51.478;5.692;2023-05-07T04:52:36;14.30;99.90
42833;DHT22;64089;51.478;5.692;2023-05-07T04:55:01;14.40;99.90
42833;DHT22;64089;51.478;5.692;2023-05-07T04:57:27;14.40;99.90
42833;DHT22;64089;51.478;5.692;2023-05-07T04:59:53;14.50;99.90
42833;DHT22;64089;51.478;5.692;2023-05-07T05:02:19;14.50;99.90
42833;DHT22;64089;51.478;5.692;2023-05-07T05:04:45;14.50;99.90
42833;DHT22;64089;51.478;5.692;2023-05-07T05:07:10;14.50;99.90
42833;DHT22;64089;51.478;5.692;2023-05-07T05:09:36;14.50;99.90
42833;DHT22;64089;51.478;5.692;2023-05-07T05:12:02;14.50;99.90
42833;DHT22;64089;51.478;5.692;2023-05-07T05:14:28;14.50;99.90
42833;DHT22;64089;51.478;5.692;2023-05-07T05:16:53;14.60;99.90
42833;DHT22;64089;51.478;5.692;2023-05-07T05:19:19;14.50;99.90
42833;DHT22;64089;51.478;5.692;2023-05-07T05:21:44;14.60;99.90
42833;DHT22;64089;51.478;5.692;2023-05-07T05:24:10;14.50;99.90
42833;DHT22;64089;51.478;5.692;2023-05-07T05:26:36;14.50;99.90
42833;DHT22;64089;51.478;5.692;2023-05-07T05:29:01;14.60;99.90
42833;DHT22;64089;51.478;5.692;2023-05-07T05:31:27;14.60;99.90
42833;DHT22;64089;51.478;5.692;2023-05-07T05:33:52;14.70;99.90
42833;DHT22;64089;51.478;5.692;2023-05-07T05:36:18;14.70;99.90
42833;DHT22;64089;51.478;5.692;2023-05-07T05:38:43;14.80;99.90
42833;DHT22;64089;51.478;5.692;2023-05-07T05:41:09;14.90;99.90
42833;DHT22;64089;51.478;5.692;2023-05-07T05:43:35;14.90;99.90
42833;DHT22;64089;51.478;5.692;2023-05-07T05:46:01;15.00;99.90
42833;DHT22;64089;51.478;5.692;2023-05-07T05:48:28;15.10;99.90
42833;DHT22;64089;51.478;5.692;2023-05-07T05:50:54;15.20;99.90
42833;DHT22;64089;51.478;5.692;2023-05-07T05:53:19;15.30;99.90
42833;DHT22;64089;51.478;5.692;2023-05-07T05:55:45;15.30;99.90
42833;DHT22;64089;51.478;5.692;2023-05-07T05:58:11;15.30;99.90
42833;DHT22;64089;51.478;5.692;2023-05-07T06:00:37;15.40;99.90
42833;DHT22;64089;51.478;5.692;2023-05-07T06:03:03;15.30;99.90
42833;DHT22;64089;51.478;5.692;2023-05-07T06:05:28;15.30;99.90
42833;DHT22;64089;51.478;5.692;2023-05-07T06:07:54;15.30;99.90
42833;DHT22;64089;51.478;5.692;2023-05-07T06:10:19;15.30;99.90
42833;DHT22;64089;51.478;5.692;2023-05-07T06:12:45;15.40;99.90
42833;DHT22;64089;51.478;5.692;2023-05-07T06:15:11;15.40;99.90
42833;DHT22;64089;51.478;5.692;2023-05-07T06:17:36;15.50;99.90
42833;DHT22;64089;51.478;5.692;2023-05-07T06:20:02;15.60;99.90
42833;DHT22;64089;51.478;5.692;2023-05-07T06:22:27;15.70;99.90
42833;DHT22;64089;51.478;5.692;2023-05-07T06:24:53;15.80;99.90
42833;DHT22;64089;51.478;5.692;2023-05-07T06:27:19;15.80;99.90
42833;DHT22;64089;51.478;5.692;2023-05-07T06:29:44;15.90;99.90
42833;DHT22;64089;51.478;5.692;2023-05-07T06:32:11;16.10;99.90
42833;DHT22;64089;51.478;5.692;2023-05-07T06:34:38;16.10;99.90
42833;DHT22;64089;51.478;5.692;2023-05-07T06:37:03;16.20;99.90
42833;DHT22;64089;51.478;5.692;2023-05-07T06:39:29;16.10;99.90
42833;DHT22;64089;51.478;5.692;2023-05-07T06:41:55;16.20;99.90
42833;DHT22;64089;51.478;5.692;2023-05-07T06:44:20;16.20;99.90
42833;DHT22;64089;51.478;5.692;2023-05-07T06:46:46;16.20;99.90
42833;DHT22;64089;51.478;5.692;2023-05-07T06:49:13;16.20;99.90
42833;DHT22;64089;51.478;5.692;2023-05-07T06:51:39;16.30;99.90
42833;DHT22;64089;51.478;5.692;2023-05-07T06:54:05;16.40;99.90
42833;DHT22;64089;51.478;5.692;2023-05-07T06:56:31;16.30;99.90
42833;DHT22;64089;51.478;5.692;2023-05-07T06:58:57;16.40;99.90
42833;DHT22;64089;51.478;5.692;2023-05-07T07:01:22;16.50;99.90
42833;DHT22;64089;51.478;5.692;2023-05-07T07:03:48;16.50;99.90
42833;DHT22;64089;51.478;5.692;2023-05-07T07:06:14;16.60;99.90
42833;DHT22;64089;51.478;5.692;2023-05-07T07:08:39;16.60;99.90
42833;DHT22;64089;51.478;5.692;2023-05-07T07:11:06;16.70;99.90
42833;DHT22;64089;51.478;5.692;2023-05-07T07:13:31;16.80;99.90
42833;DHT22;64089;51.478;5.692;2023-05-07T07:15:57;16.80;99.90
42833;DHT22;64089;51.478;5.692;2023-05-07T07:18:23;16.80;99.90
42833;DHT22;64089;51.478;5.692;2023-05-07T07:20:48;16.90;99.90
42833;DHT22;64089;51.478;5.692;2023-05-07T07:23:14;16.80;99.90
42833;DHT22;64089;51.478;5.692;2023-05-07T07:25:40;16.80;99.90
42833;DHT22;64089;51.478;5.692;2023-05-07T07:28:06;16.70;99.90
42833;DHT22;64089;51.478;5.692;2023-05-07T07:30:32;16.80;99.90
42833;DHT22;64089;51.478;5.692;2023-05-07T07:32:58;16.80;99.90
42833;DHT22;64089;51.478;5.692;2023-05-07T07:35:29;16.80;99.90
42833;DHT22;64089;51.478;5.692;2023-05-07T07:37:54;16.90;99.90
42833;DHT22;64089;51.478;5.692;2023-05-07T07:40:20;16.80;99.90
42833;DHT22;64089;51.478;5.692;2023-05-07T07:42:45;16.80;99.90
42833;DHT22;64089;51.478;5.692;2023-05-07T07:45:11;16.80;99.90
42833;DHT22;64089;51.478;5.692;2023-05-07T07:47:38;16.90;99.90
42833;DHT22;64089;51.478;5.692;2023-05-07T07:50:04;16.90;99.90
42833;DHT22;64089;51.478;5.692;2023-05-07T07:52:30;17.00;99.90
42833;DHT22;64089;51.478;5.692;2023-05-07T07:54:55;17.10;99.90
42833;DHT22;64089;51.478;5.692;2023-05-07T07:57:21;17.20;99.90
42833;DHT22;64089;51.478;5.692;2023-05-07T07:59:46;17.30;99.90
42833;DHT22;64089;51.478;5.692;2023-05-07T08:02:12;17.30;99.90
42833;DHT22;64089;51.478;5.692;2023-05-07T08:04:37;17.40;99.90
42833;DHT22;64089;51.478;5.692;2023-05-07T08:07:03;17.40;99.90
42833;DHT22;64089;51.478;5.692;2023-05-07T08:09:29;17.50;99.90
42833;DHT22;64089;51.478;5.692;2023-05-07T08:11:54;17.60;99.90
42833;DHT22;64089;51.478;5.692;2023-05-07T08:14:20;17.70;99.90
42833;DHT22;64089;51.478;5.692;2023-05-07T08:16:46;17.70;99.90
42833;DHT22;64089;51.478;5.692;2023-05-07T08:19:11;17.80;99.90
42833;DHT22;64089;51.478;5.692;2023-05-07T08:21:40;17.70;99.90
42833;DHT22;64089;51.478;5.692;2023-05-07T08:24:06;17.80;99.90
42833;DHT22;64089;51.478;5.692;2023-05-07T08:26:32;18.00;99.90
42833;DHT22;64089;51.478;5.692;2023-05-07T08:28:57;18.00;99.90
42833;DHT22;64089;51.478;5.692;2023-05-07T08:31:23;18.00;99.90
42833;DHT22;64089;51.478;5.692;2023-05-07T08:33:49;18.20;99.90
42833;DHT22;64089;51.478;5.692;2023-05-07T08:36:18;18.10;99.90
42833;DHT22;64089;51.478;5.692;2023-05-07T08:38:44;18.20;99.90
42833;DHT22;64089;51.478;5.692;2023-05-07T08:41:11;18.40;99.90
42833;DHT22;64089;51.478;5.692;2023-05-07T08:43:38;18.50;99.90
42833;DHT22;64089;51.478;5.692;2023-05-07T08:46:08;18.70;99.90
42833;DHT22;64089;51.478;5.692;2023-05-07T08:48:34;18.80;99.90
42833;DHT22;64089;51.478;5.692;2023-05-07T08:51:01;18.80;99.90
42833;DHT22;64089;51.478;5.692;2023-05-07T08:53:27;19.00;99.90
42833;DHT22;64089;51.478;5.692;2023-05-07T08:55:53;19.00;99.90
42833;DHT22;64089;51.478;5.692;2023-05-07T08:58:18;19.00;99.90
42833;DHT22;64089;51.478;5.692;2023-05-07T09:00:44;19.20;99.90
42833;DHT22;64089;51.478;5.692;2023-05-07T09:03:10;19.50;99.90
42833;DHT22;64089;51.478;5.692;2023-05-07T09:05:38;19.60;99.90
42833;DHT22;64089;51.478;5.692;2023-05-07T09:08:05;19.70;99.90
42833;DHT22;64089;51.478;5.692;2023-05-07T09:10:33;19.70;99.90
42833;DHT22;64089;51.478;5.692;2023-05-07T09:12:59;19.80;99.90
42833;DHT22;64089;51.478;5.692;2023-05-07T09:15:28;20.10;99.90
42833;DHT22;64089;51.478;5.692;2023-05-07T09:17:53;20.10;99.90
42833;DHT22;64089;51.478;5.692;2023-05-07T09:20:19;19.90;99.90
42833;DHT22;64089;51.478;5.692;2023-05-07T09:22:45;20.00;99.90
42833;DHT22;64089;51.478;5.692;2023-05-07T09:25:11;20.10;99.90
42833;DHT22;64089;51.478;5.692;2023-05-07T09:27:37;20.10;99.90
42833;DHT22;64089;51.478;5.692;2023-05-07T09:30:06;19.90;99.90
42833;DHT22;64089;51.478;5.692;2023-05-07T09:32:36;19.70;99.90
42833;DHT22;64089;51.478;5.692;2023-05-07T09:35:03;19.60;99.90
42833;DHT22;64089;51.478;5.692;2023-05-07T09:37:31;19.70;99.90
42833;DHT22;64089;51.478;5.692;2023-05-07T09:39:57;19.80;99.90
42833;DHT22;64089;51.478;5.692;2023-05-07T09:42:26;19.60;99.90
42833;DHT22;64089;51.478;5.692;2023-05-07T09:44:52;19.70;99.90
42833;DHT22;64089;51.478;5.692;2023-05-07T09:47:23;19.80;99.90
42833;DHT22;64089;51.478;5.692;2023-05-07T09:49:50;19.80;99.90
42833;DHT22;64089;51.478;5.692;2023-05-07T09:52:20;19.80;99.90
42833;DHT22;64089;51.478;5.692;2023-05-07T09:54:47;20.00;99.90
42833;DHT22;64089;51.478;5.692;2023-05-07T09:57:13;20.20;99.90
42833;DHT22;64089;51.478;5.692;2023-05-07T09:59:42;20.30;99.90
42833;DHT22;64089;51.478;5.692;2023-05-07T10:02:09;20.60;99.90
42833;DHT22;64089;51.478;5.692;2023-05-07T10:04:35;20.60;99.90
42833;DHT22;64089;51.478;5.692;2023-05-07T10:07:03;20.60;99.90
42833;DHT22;64089;51.478;5.692;2023-05-07T10:09:30;20.70;99.90
42833;DHT22;64089;51.478;5.692;2023-05-07T10:11:56;20.90;99.90
42833;DHT22;64089;51.478;5.692;2023-05-07T10:14:22;21.30;99.90
42833;DHT22;64089;51.478;5.692;2023-05-07T10:16:48;21.20;99.90
42833;DHT22;64089;51.478;5.692;2023-05-07T10:19:15;21.10;99.90
42833;DHT22;64089;51.478;5.692;2023-05-07T10:21:51;21.00;99.90
42833;DHT22;64089;51.478;5.692;2023-05-07T10:24:26;21.00;99.90
42833;DHT22;64089;51.478;5.692;2023-05-07T10:26:53;21.10;99.90
42833;DHT22;64089;51.478;5.692;2023-05-07T10:34:23;21.60;99.90
42833;DHT22;64089;51.478;5.692;2023-05-07T10:36:50;21.60;99.90
42833;DHT22;64089;51.478;5.692;2023-05-07T10:39:17;21.90;99.90
42833;DHT22;64089;51.478;5.692;2023-05-07T10:41:43;21.90;99.90
42833;DHT22;64089;51.478;5.692;2023-05-07T10:44:08;22.20;99.90
42833;DHT22;64089;51.478;5.692;2023-05-07T10:46:34;22.20;99.90
42833;DHT22;64089;51.478;5.692;2023-05-07T10:51:27;22.30;99.90
42833;DHT22;64089;51.478;5.692;2023-05-07T10:56:41;22.20;99.90
42833;DHT22;64089;51.478;5.692;2023-05-07T11:04:21;22.20;99.90
42833;DHT22;64089;51.478;5.692;2023-05-07T11:13:02;22.20;99.90
42833;DHT22;64089;51.478;5.692;2023-05-07T11:15:08;22.20;99.90
42833;DHT22;64089;51.478;5.692;2023-05-07T11:17:34;22.40;99.90
42833;DHT22;64089;51.478;5.692;2023-05-07T11:20:01;22.30;99.90
42833;DHT22;64089;51.478;5.692;2023-05-07T11:24:56;22.30;99.90
42833;DHT22;64089;51.478;5.692;2023-05-07T11:27:29;22.10;99.90
42833;DHT22;64089;51.478;5.692;2023-05-07T11:29:55;22.10;99.90
42833;DHT22;64089;51.478;5.692;2023-05-07T11:32:26;22.20;99.90
42833;DHT22;64089;51.478;5.692;2023-05-07T11:34:53;22.40;99.90
42833;DHT22;64089;51.478;5.692;2023-05-07T11:37:20;22.40;99.90
42833;DHT22;64089;51.478;5.692;2023-05-07T11:39:45;22.30;99.90
42833;DHT22;64089;51.478;5.692;2023-05-07T11:42:30;22.30;99.90
42833;DHT22;64089;51.478;5.692;2023-05-07T11:44:56;22.20;99.90
42833;DHT22;64089;51.478;5.692;2023-05-07T11:47:22;22.00;99.90
42833;DHT22;64089;51.478;5.692;2023-05-07T11:49:51;21.90;99.90
42833;DHT22;64089;51.478;5.692;2023-05-07T11:52:18;21.90;99.90
42833;DHT22;64089;51.478;5.692;2023-05-07T11:54:55;21.80;99.90
42833;DHT22;64089;51.478;5.692;2023-05-07T11:57:24;21.70;99.90
42833;DHT22;64089;51.478;5.692;2023-05-07T11:59:54;21.60;99.90
42833;DHT22;64089;51.478;5.692;2023-05-07T12:02:19;21.60;99.90
42833;DHT22;64089;51.478;5.692;2023-05-07T12:04:45;21.70;99.90
42833;DHT22;64089;51.478;5.692;2023-05-07T12:07:12;21.60;99.90
42833;DHT22;64089;51.478;5.692;2023-05-07T12:09:39;21.60;99.90
42833;DHT22;64089;51.478;5.692;2023-05-07T12:12:05;21.70;99.90
42833;DHT22;64089;51.478;5.692;2023-05-07T12:14:31;21.70;99.90
42833;DHT22;64089;51.478;5.692;2023-05-07T12:16:58;21.70;99.90
42833;DHT22;64089;51.478;5.692;2023-05-07T12:19:24;21.60;99.90
42833;DHT22;64089;51.478;5.692;2023-05-07T12:21:50;21.50;99.90
42833;DHT22;64089;51.478;5.692;2023-05-07T12:24:16;21.40;99.90
42833;DHT22;64089;51.478;5.692;2023-05-07T12:26:41;21.30;99.90
42833;DHT22;64089;51.478;5.692;2023-05-07T12:29:08;21.20;99.90
42833;DHT22;64089;51.478;5.692;2023-05-07T12:31:34;21.10;99.90
42833;DHT22;64089;51.478;5.692;2023-05-07T12:34:00;21.10;99.90
42833;DHT22;64089;51.478;5.692;2023-05-07T12:36:25;21.00;99.90
42833;DHT22;64089;51.478;5.692;2023-05-07T12:38:51;21.00;99.90
42833;DHT22;64089;51.478;5.692;2023-05-07T12:41:16;20.90;99.90
42833;DHT22;64089;51.478;5.692;2023-05-07T12:43:46;20.90;99.90
42833;DHT22;64089;51.478;5.692;2023-05-07T12:46:12;20.90;99.90
42833;DHT22;64089;51.478;5.692;2023-05-07T12:48:44;20.90;99.90
42833;DHT22;64089;51.478;5.692;2023-05-07T12:51:10;20.80;99.90
42833;DHT22;64089;51.478;5.692;2023-05-07T12:53:42;20.80;99.90
42833;DHT22;64089;51.478;5.692;2023-05-07T12:56:08;20.70;99.90
42833;DHT22;64089;51.478;5.692;2023-05-07T12:58:35;20.60;99.90
42833;DHT22;64089;51.478;5.692;2023-05-07T13:01:06;20.50;99.90
42833;DHT22;64089;51.478;5.692;2023-05-07T13:03:34;20.40;99.90
42833;DHT22;64089;51.478;5.692;2023-05-07T13:06:07;20.30;99.90
42833;DHT22;64089;51.478;5.692;2023-05-07T13:08:39;20.00;99.90
42833;DHT22;64089;51.478;5.692;2023-05-07T13:11:11;19.40;99.90
42833;DHT22;64089;51.478;5.692;2023-05-07T13:13:41;18.90;99.90
42833;DHT22;64089;51.478;5.692;2023-05-07T13:16:08;18.60;99.90
42833;DHT22;64089;51.478;5.692;2023-05-07T13:18:34;18.50;99.90
42833;DHT22;64089;51.478;5.692;2023-05-07T13:21:01;18.40;99.90
42833;DHT22;64089;51.478;5.692;2023-05-07T13:23:27;18.00;99.90
42833;DHT22;64089;51.478;5.692;2023-05-07T13:25:53;17.80;99.90
42833;DHT22;64089;51.478;5.692;2023-05-07T13:28:25;17.30;99.90
42833;DHT22;64089;51.478;5.692;2023-05-07T13:30:52;16.80;99.90
42833;DHT22;64089;51.478;5.692;2023-05-07T13:33:18;16.50;99.90
42833;DHT22;64089;51.478;5.692;2023-05-07T13:35:44;16.30;99.90
42833;DHT22;64089;51.478;5.692;2023-05-07T13:38:10;16.20;99.90
42833;DHT22;64089;51.478;5.692;2023-05-07T13:40:35;16.20;99.90
42833;DHT22;64089;51.478;5.692;2023-05-07T13:43:01;16.30;99.90
42833;DHT22;64089;51.478;5.692;2023-05-07T13:45:28;16.40;99.90
42833;DHT22;64089;51.478;5.692;2023-05-07T13:47:55;16.40;99.90
42833;DHT22;64089;51.478;5.692;2023-05-07T13:50:21;16.30;99.90
42833;DHT22;64089;51.478;5.692;2023-05-07T13:52:47;16.20;99.90
42833;DHT22;64089;51.478;5.692;2023-05-07T13:55:22;16.10;99.90
42833;DHT22;64089;51.478;5.692;2023-05-07T13:57:58;16.00;99.90
42833;DHT22;64089;51.478;5.692;2023-05-07T14:00:25;15.80;99.90
42833;DHT22;64089;51.478;5.692;2023-05-07T14:02:51;15.90;99.90
42833;DHT22;64089;51.478;5.692;2023-05-07T14:05:17;15.80;99.90
42833;DHT22;64089;51.478;5.692;2023-05-07T14:07:43;15.90;99.90
42833;DHT22;64089;51.478;5.692;2023-05-07T14:10:09;15.90;99.90
42833;DHT22;64089;51.478;5.692;2023-05-07T14:12:36;15.90;99.90
42833;DHT22;64089;51.478;5.692;2023-05-07T14:15:02;15.90;99.90
42833;DHT22;64089;51.478;5.692;2023-05-07T14:17:28;15.90;99.90
42833;DHT22;64089;51.478;5.692;2023-05-07T14:19:54;15.90;99.90
42833;DHT22;64089;51.478;5.692;2023-05-07T14:22:22;15.90;99.90
42833;DHT22;64089;51.478;5.692;2023-05-07T14:24:49;15.90;99.90
42833;DHT22;64089;51.478;5.692;2023-05-07T14:27:15;15.90;99.90
42833;DHT22;64089;51.478;5.692;2023-05-07T14:29:41;15.90;99.90
42833;DHT22;64089;51.478;5.692;2023-05-07T14:32:07;15.90;99.90
42833;DHT22;64089;51.478;5.692;2023-05-07T14:34:33;15.90;99.90
42833;DHT22;64089;51.478;5.692;2023-05-07T14:36:59;16.00;99.90
42833;DHT22;64089;51.478;5.692;2023-05-07T14:39:25;16.00;99.90
42833;DHT22;64089;51.478;5.692;2023-05-07T14:41:51;16.20;99.90
42833;DHT22;64089;51.478;5.692;2023-05-07T14:44:17;16.20;99.90
42833;DHT22;64089;51.478;5.692;2023-05-07T14:46:42;16.20;99.90
42833;DHT22;64089;51.478;5.692;2023-05-07T14:49:08;16.20;99.90
42833;DHT22;64089;51.478;5.692;2023-05-07T14:51:45;16.40;99.90
42833;DHT22;64089;51.478;5.692;2023-05-07T14:54:11;16.50;99.90
42833;DHT22;64089;51.478;5.692;2023-05-07T14:56:37;16.60;99.90
42833;DHT22;64089;51.478;5.692;2023-05-07T14:59:03;16.70;99.90
42833;DHT22;64089;51.478;5.692;2023-05-07T15:01:29;16.80;99.90
42833;DHT22;64089;51.478;5.692;2023-05-07T15:03:55;16.90;99.90
42833;DHT22;64089;51.478;5.692;2023-05-07T15:06:23;16.90;99.90
42833;DHT22;64089;51.478;5.692;2023-05-07T15:08:49;17.00;99.90
42833;DHT22;64089;51.478;5.692;2023-05-07T15:11:18;17.00;99.90
42833;DHT22;64089;51.478;5.692;2023-05-07T15:13:44;17.10;99.90
42833;DHT22;64089;51.478;5.692;2023-05-07T15:16:10;17.10;99.90
42833;DHT22;64089;51.478;5.692;2023-05-07T15:18:35;17.00;99.90
42833;DHT22;64089;51.478;5.692;2023-05-07T15:21:01;17.00;99.90
42833;DHT22;64089;51.478;5.692;2023-05-07T15:23:27;17.00;99.90
42833;DHT22;64089;51.478;5.692;2023-05-07T15:25:53;17.10;99.90
42833;DHT22;64089;51.478;5.692;2023-05-07T15:28:19;17.10;99.90
42833;DHT22;64089;51.478;5.692;2023-05-07T15:30:45;17.00;99.90
42833;DHT22;64089;51.478;5.692;2023-05-07T15:33:10;17.00;99.90
42833;DHT22;64089;51.478;5.692;2023-05-07T15:35:36;17.10;99.90
42833;DHT22;64089;51.478;5.692;2023-05-07T15:38:02;17.20;99.90
42833;DHT22;64089;51.478;5.692;2023-05-07T15:40:28;17.40;99.90
42833;DHT22;64089;51.478;5.692;2023-05-07T15:42:55;17.50;99.90
42833;DHT22;64089;51.478;5.692;2023-05-07T15:45:22;17.70;99.90
42833;DHT22;64089;51.478;5.692;2023-05-07T15:47:48;18.00;99.90
42833;DHT22;64089;51.478;5.692;2023-05-07T15:50:13;18.10;99.90